sensor_id;sensor_type;location;lat;lon;timestamp;temperature;humidity
11894;DHT22;6006;49.696;8.662;2023-06-24T00:00:02;14.00;99.90
11894;DHT22;6006;49.696;8.662;2023-06-24T00:02:33;13.90;99.90
11894;DHT22;6006;49.696;8.662;2023-06-24T00:05:03;14.00;99.90
11894;DHT22;6006;49.696;8.662;2023-06-24T00:07:30;14.00;99.90
11894;DHT22;6006;49.696;8.662;2023-06-24T00:09:57;14.00;99.90
11894;DHT22;6006;49.696;8.662;2023-06-24T00:12:24;14.00;99.90
11894;DHT22;6006;49.696;8.662;2023-06-24T00:14:52;14.00;99.90
11894;DHT22;6006;49.696;8.662;2023-06-24T00:17:19;14.10;99.90
11894;DHT22;6006;49.696;8.662;2023-06-24T00:19:46;14.10;99.90
11894;DHT22;6006;49.696;8.662;2023-06-24T00:22:14;14.10;99.90
11894;DHT22;6006;49.696;8.662;2023-06-24T00:24:41;14.10;99.90
11894;DHT22;6006;49.696;8.662;2023-06-24T00:27:08;14.00;99.90
11894;DHT22;6006;49.696;8.662;2023-06-24T00:29:35;14.00;99.90
11894;DHT22;6006;49.696;8.662;2023-06-24T00:32:02;14.00;99.90
11894;DHT22;6006;49.696;8.662;2023-06-24T00:34:29;13.90;99.90
11894;DHT22;6006;49.696;8.662;2023-06-24T00:36:56;13.90;99.90
11894;DHT22;6006;49.696;8.662;2023-06-24T00:39:24;13.90;99.90
11894;DHT22;6006;49.696;8.662;2023-06-24T00:41:51;13.80;99.90
11894;DHT22;6006;49.696;8.662;2023-06-24T00:44:19;13.70;99.90
11894;DHT22;6006;49.696;8.662;2023-06-24T00:46:46;13.70;99.90
11894;DHT22;6006;49.696;8.662;2023-06-24T00:49:15;13.60;99.90
11894;DHT22;6006;49.696;8.662;2023-06-24T00:51:41;13.50;99.90
11894;DHT22;6006;49.696;8.662;2023-06-24T00:54:15;13.50;99.90
11894;DHT22;6006;49.696;8.662;2023-06-24T00:56:44;13.50;99.90
11894;DHT22;6006;49.696;8.662;2023-06-24T00:59:13;13.40;99.90
11894;DHT22;6006;49.696;8.662;2023-06-24T01:01:41;13.40;99.90
11894;DHT22;6006;49.696;8.662;2023-06-24T01:04:10;13.40;99.90
11894;DHT22;6006;49.696;8.662;2023-06-24T01:06:37;13.40;99.90
11894;DHT22;6006;49.696;8.662;2023-06-24T01:09:09;13.40;99.90
11894;DHT22;6006;49.696;8.662;2023-06-24T01:11:36;13.40;99.90
11894;DHT22;6006;49.696;8.662;2023-06-24T01:14:05;13.40;99.90
11894;DHT22;6006;49.696;8.662;2023-06-24T01:16:38;13.30;99.90
11894;DHT22;6006;49.696;8.662;2023-06-24T01:19:20;13.30;99.90
11894;DHT22;6006;49.696;8.662;2023-06-24T01:22:01;13.30;99.90
11894;DHT22;6006;49.696;8.662;2023-06-24T01:25:00;13.30;99.90
11894;DHT22;6006;49.696;8.662;2023-06-24T01:27:51;13.30;99.90
11894;DHT22;6006;49.696;8.662;2023-06-24T01:31:05;13.30;99.90
11894;DHT22;6006;49.696;8.662;2023-06-24T01:33:42;13.00;99.90
11894;DHT22;6006;49.696;8.662;2023-06-24T01:36:14;13.00;99.90
11894;DHT22;6006;49.696;8.662;2023-06-24T01:38:47;13.00;99.90
11894;DHT22;6006;49.696;8.662;2023-06-24T01:41:21;13.00;99.90
11894;DHT22;6006;49.696;8.662;2023-06-24T01:43:50;13.00;99.90
11894;DHT22;6006;49.696;8.662;2023-06-24T01:46:20;13.10;99.90
11894;DHT22;6006;49.696;8.662;2023-06-24T01:48:50;13.10;99.90
11894;DHT22;6006;49.696;8.662;2023-06-24T01:51:21;13.10;99.90
11894;DHT22;6006;49.696;8.662;2023-06-24T01:53:52;13.10;99.90
11894;DHT22;6006;49.696;8.662;2023-06-24T01:56:22;13.20;99.90
11894;DHT22;6006;49.696;8.662;2023-06-24T01:58:52;13.20;99.90
11894;DHT22;6006;49.696;8.662;2023-06-24T02:01:20;13.20;99.90
11894;DHT22;6006;49.696;8.662;2023-06-24T02:03:50;13.20;99.90
11894;DHT22;6006;49.696;8.662;2023-06-24T02:06:19;13.30;99.90
11894;DHT22;6006;49.696;8.662;2023-06-24T02:08:48;13.20;99.90
11894;DHT22;6006;49.696;8.662;2023-06-24T02:11:19;13.10;99.90
11894;DHT22;6006;49.696;8.662;2023-06-24T02:13:48;13.00;99.90
11894;DHT22;6006;49.696;8.662;2023-06-24T02:16:17;13.00;99.90
11894;DHT22;6006;49.696;8.662;2023-06-24T02:18:44;12.90;99.90
11894;DHT22;6006;49.696;8.662;2023-06-24T02:21:16;12.90;99.90
11894;DHT22;6006;49.696;8.662;2023-06-24T02:23:46;12.90;99.90
11894;DHT22;6006;49.696;8.662;2023-06-24T02:26:13;12.90;99.90
11894;DHT22;6006;49.696;8.662;2023-06-24T02:28:43;12.90;99.90
11894;DHT22;6006;49.696;8.662;2023-06-24T02:31:11;12.90;99.90
11894;DHT22;6006;49.696;8.662;2023-06-24T02:33:39;12.80;99.90
11894;DHT22;6006;49.696;8.662;2023-06-24T02:36:06;12.90;99.90
11894;DHT22;6006;49.696;8.662;2023-06-24T02:38:34;12.90;99.90
11894;DHT22;6006;49.696;8.662;2023-06-24T02:41:01;12.80;99.90
11894;DHT22;6006;49.696;8.662;2023-06-24T02:43:30;12.80;99.90
11894;DHT22;6006;49.696;8.662;2023-06-24T02:45:58;12.80;99.90
11894;DHT22;6006;49.696;8.662;2023-06-24T02:48:26;12.70;99.90
11894;DHT22;6006;49.696;8.662;2023-06-24T02:50:55;12.70;99.90
11894;DHT22;6006;49.696;8.662;2023-06-24T02:53:23;12.70;99.90
11894;DHT22;6006;49.696;8.662;2023-06-24T02:55:52;12.70;99.90
11894;DHT22;6006;49.696;8.662;2023-06-24T02:58:20;12.70;99.90
11894;DHT22;6006;49.696;8.662;2023-06-24T03:00:47;12.70;99.90
11894;DHT22;6006;49.696;8.662;2023-06-24T03:03:15;12.70;99.90
11894;DHT22;6006;49.696;8.662;2023-06-24T03:05:42;12.70;99.90
11894;DHT22;6006;49.696;8.662;2023-06-24T03:08:10;12.70;99.90
11894;DHT22;6006;49.696;8.662;2023-06-24T03:10:37;12.60;99.90
11894;DHT22;6006;49.696;8.662;2023-06-24T03:13:05;12.70;99.90
11894;DHT22;6006;49.696;8.662;2023-06-24T03:15:32;12.60;99.90
11894;DHT22;6006;49.696;8.662;2023-06-24T03:17:59;12.60;99.90
11894;DHT22;6006;49.696;8.662;2023-06-24T03:20:26;12.60;99.90
11894;DHT22;6006;49.696;8.662;2023-06-24T03:22:53;12.60;99.90
11894;DHT22;6006;49.696;8.662;2023-06-24T03:25:21;12.60;99.90
11894;DHT22;6006;49.696;8.662;2023-06-24T03:27:48;12.60;99.90
11894;DHT22;6006;49.696;8.662;2023-06-24T03:30:17;12.60;99.90
11894;DHT22;6006;49.696;8.662;2023-06-24T03:32:43;12.60;99.90
11894;DHT22;6006;49.696;8.662;2023-06-24T03:35:12;12.50;99.90
11894;DHT22;6006;49.696;8.662;2023-06-24T03:37:39;12.60;99.90
11894;DHT22;6006;49.696;8.662;2023-06-24T03:40:07;12.60;99.90
11894;DHT22;6006;49.696;8.662;2023-06-24T03:42:34;12.70;99.90
11894;DHT22;6006;49.696;8.662;2023-06-24T03:45:02;12.80;99.90
11894;DHT22;6006;49.696;8.662;2023-06-24T03:47:31;12.80;99.90
11894;DHT22;6006;49.696;8.662;2023-06-24T03:49:57;12.90;99.90
11894;DHT22;6006;49.696;8.662;2023-06-24T03:52:24;12.90;99.90
11894;DHT22;6006;49.696;8.662;2023-06-24T03:54:51;12.90;99.90
11894;DHT22;6006;49.696;8.662;2023-06-24T03:57:19;13.00;99.90
11894;DHT22;6006;49.696;8.662;2023-06-24T03:59:46;13.00;99.90
11894;DHT22;6006;49.696;8.662;2023-06-24T04:02:13;13.00;99.90
11894;DHT22;6006;49.696;8.662;2023-06-24T04:04:42;13.10;99.90
11894;DHT22;6006;49.696;8.662;2023-06-24T04:07:09;13.10;99.90
11894;DHT22;6006;49.696;8.662;2023-06-24T04:09:36;13.20;99.90
11894;DHT22;6006;49.696;8.662;2023-06-24T04:12:04;13.30;99.90
11894;DHT22;6006;49.696;8.662;2023-06-24T04:14:31;13.30;99.90
11894;DHT22;6006;49.696;8.662;2023-06-24T04:16:57;13.30;99.90
11894;DHT22;6006;49.696;8.662;2023-06-24T04:19:24;13.40;99.90
11894;DHT22;6006;49.696;8.662;2023-06-24T04:21:53;13.50;99.90
11894;DHT22;6006;49.696;8.662;2023-06-24T04:24:19;13.60;99.90
11894;DHT22;6006;49.696;8.662;2023-06-24T04:26:46;13.70;99.90
11894;DHT22;6006;49.696;8.662;2023-06-24T04:29:13;13.80;99.90
11894;DHT22;6006;49.696;8.662;2023-06-24T04:31:40;13.90;99.90
11894;DHT22;6006;49.696;8.662;2023-06-24T04:34:07;14.00;99.90
11894;DHT22;6006;49.696;8.662;2023-06-24T04:36:34;14.10;99.90
11894;DHT22;6006;49.696;8.662;2023-06-24T04:39:02;14.10;99.90
11894;DHT22;6006;49.696;8.662;2023-06-24T04:41:29;14.30;99.90
11894;DHT22;6006;49.696;8.662;2023-06-24T04:43:57;14.40;99.90
11894;DHT22;6006;49.696;8.662;2023-06-24T04:46:24;14.50;99.90
11894;DHT22;6006;49.696;8.662;2023-06-24T04:48:51;14.70;99.90
11894;DHT22;6006;49.696;8.662;2023-06-24T04:51:18;14.80;99.90
11894;DHT22;6006;49.696;8.662;2023-06-24T04:53:45;15.00;99.90
11894;DHT22;6006;49.696;8.662;2023-06-24T04:56:13;15.20;99.90
11894;DHT22;6006;49.696;8.662;2023-06-24T04:58:40;15.40;99.90
11894;DHT22;6006;49.696;8.662;2023-06-24T05:01:07;15.60;99.90
11894;DHT22;6006;49.696;8.662;2023-06-24T05:03:34;15.80;99.90
11894;DHT22;6006;49.696;8.662;2023-06-24T05:06:01;16.00;99.90
11894;DHT22;6006;49.696;8.662;2023-06-24T05:08:28;16.20;99.90
11894;DHT22;6006;49.696;8.662;2023-06-24T05:10:55;16.40;99.90
11894;DHT22;6006;49.696;8.662;2023-06-24T05:13:23;16.60;99.90
11894;DHT22;6006;49.696;8.662;2023-06-24T05:15:50;16.70;99.60
11894;DHT22;6006;49.696;8.662;2023-06-24T05:18:19;16.90;83.40
11894;DHT22;6006;49.696;8.662;2023-06-24T05:20:46;17.20;56.30
11894;DHT22;6006;49.696;8.662;2023-06-24T05:23:13;17.40;20.80
11894;DHT22;6006;49.696;8.662;2023-06-24T05:25:39;17.60;1.00
11894;DHT22;6006;49.696;8.662;2023-06-24T05:28:06;17.90;1.00
11894;DHT22;6006;49.696;8.662;2023-06-24T05:30:35;18.10;1.00
11894;DHT22;6006;49.696;8.662;2023-06-24T05:33:02;18.10;99.90
11894;DHT22;6006;49.696;8.662;2023-06-24T05:35:29;18.30;1.00
11894;DHT22;6006;49.696;8.662;2023-06-24T05:37:55;18.50;1.00
11894;DHT22;6006;49.696;8.662;2023-06-24T05:40:22;18.60;99.90
11894;DHT22;6006;49.696;8.662;2023-06-24T05:42:49;18.90;99.90
11894;DHT22;6006;49.696;8.662;2023-06-24T05:45:17;18.90;1.00
11894;DHT22;6006;49.696;8.662;2023-06-24T05:47:45;18.70;92.60
11894;DHT22;6006;49.696;8.662;2023-06-24T05:50:12;19.00;2.60
11894;DHT22;6006;49.696;8.662;2023-06-24T05:52:39;19.30;1.00
11894;DHT22;6006;49.696;8.662;2023-06-24T05:55:07;19.70;1.00
11894;DHT22;6006;49.696;8.662;2023-06-24T05:57:34;19.90;1.00
11894;DHT22;6006;49.696;8.662;2023-06-24T06:00:01;20.10;1.00
11894;DHT22;6006;49.696;8.662;2023-06-24T06:02:29;20.00;52.20
11894;DHT22;6006;49.696;8.662;2023-06-24T06:04:57;20.30;1.00
11894;DHT22;6006;49.696;8.662;2023-06-24T06:07:24;20.80;1.00
11894;DHT22;6006;49.696;8.662;2023-06-24T06:09:51;21.40;99.90
11894;DHT22;6006;49.696;8.662;2023-06-24T06:12:18;21.50;1.00
11894;DHT22;6006;49.696;8.662;2023-06-24T06:14:45;21.60;1.00
11894;DHT22;6006;49.696;8.662;2023-06-24T06:17:13;21.70;1.00
11894;DHT22;6006;49.696;8.662;2023-06-24T06:19:40;21.80;1.00
11894;DHT22;6006;49.696;8.662;2023-06-24T06:22:08;22.00;1.00
11894;DHT22;6006;49.696;8.662;2023-06-24T06:24:35;22.40;1.00
11894;DHT22;6006;49.696;8.662;2023-06-24T06:27:03;22.30;1.00
11894;DHT22;6006;49.696;8.662;2023-06-24T06:29:30;22.40;99.90
11894;DHT22;6006;49.696;8.662;2023-06-24T06:31:56;22.60;1.00
11894;DHT22;6006;49.696;8.662;2023-06-24T06:34:23;22.60;99.90
11894;DHT22;6006;49.696;8.662;2023-06-24T06:36:50;22.60;99.90
11894;DHT22;6006;49.696;8.662;2023-06-24T06:39:18;22.70;99.90
11894;DHT22;6006;49.696;8.662;2023-06-24T06:41:45;22.60;99.90
11894;DHT22;6006;49.696;8.662;2023-06-24T06:44:12;22.30;1.00
11894;DHT22;6006;49.696;8.662;2023-06-24T06:46:39;22.50;1.00
11894;DHT22;6006;49.696;8.662;2023-06-24T06:49:06;22.70;1.00
11894;DHT22;6006;49.696;8.662;2023-06-24T06:51:33;22.70;1.00
11894;DHT22;6006;49.696;8.662;2023-06-24T06:54:00;22.70;99.90
11894;DHT22;6006;49.696;8.662;2023-06-24T06:56:29;23.00;99.90
11894;DHT22;6006;49.696;8.662;2023-06-24T06:58:55;23.40;99.90
11894;DHT22;6006;49.696;8.662;2023-06-24T07:01:22;23.20;99.90
11894;DHT22;6006;49.696;8.662;2023-06-24T07:03:50;23.20;99.90
11894;DHT22;6006;49.696;8.662;2023-06-24T07:06:18;23.20;99.90
11894;DHT22;6006;49.696;8.662;2023-06-24T07:08:45;23.30;99.90
11894;DHT22;6006;49.696;8.662;2023-06-24T07:11:12;23.50;99.90
11894;DHT22;6006;49.696;8.662;2023-06-24T07:13:40;23.70;99.90
11894;DHT22;6006;49.696;8.662;2023-06-24T07:16:07;23.60;99.90
11894;DHT22;6006;49.696;8.662;2023-06-24T07:18:34;24.40;99.90
11894;DHT22;6006;49.696;8.662;2023-06-24T07:21:01;24.40;99.90
11894;DHT22;6006;49.696;8.662;2023-06-24T07:23:28;24.40;99.90
11894;DHT22;6006;49.696;8.662;2023-06-24T07:25:55;24.50;99.90
11894;DHT22;6006;49.696;8.662;2023-06-24T07:28:22;24.50;99.90
11894;DHT22;6006;49.696;8.662;2023-06-24T07:30:50;24.80;99.90
11894;DHT22;6006;49.696;8.662;2023-06-24T07:33:17;25.40;99.90
11894;DHT22;6006;49.696;8.662;2023-06-24T07:35:44;25.60;99.90
11894;DHT22;6006;49.696;8.662;2023-06-24T07:38:11;25.80;99.90
11894;DHT22;6006;49.696;8.662;2023-06-24T07:40:38;25.90;99.90
11894;DHT22;6006;49.696;8.662;2023-06-24T07:43:05;26.50;99.90
11894;DHT22;6006;49.696;8.662;2023-06-24T07:45:31;26.20;99.90
11894;DHT22;6006;49.696;8.662;2023-06-24T07:48:00;25.70;99.90
11894;DHT22;6006;49.696;8.662;2023-06-24T07:50:27;25.60;99.90
11894;DHT22;6006;49.696;8.662;2023-06-24T07:52:53;25.70;99.90
11894;DHT22;6006;49.696;8.662;2023-06-24T07:55:20;25.30;99.90
11894;DHT22;6006;49.696;8.662;2023-06-24T07:57:48;25.60;99.90
11894;DHT22;6006;49.696;8.662;2023-06-24T08:00:16;25.70;99.90
11894;DHT22;6006;49.696;8.662;2023-06-24T08:02:43;25.70;99.90
11894;DHT22;6006;49.696;8.662;2023-06-24T08:05:11;26.00;99.90
11894;DHT22;6006;49.696;8.662;2023-06-24T08:07:38;26.60;99.90
11894;DHT22;6006;49.696;8.662;2023-06-24T08:10:06;25.20;99.90
11894;DHT22;6006;49.696;8.662;2023-06-24T08:12:33;25.30;99.90
11894;DHT22;6006;49.696;8.662;2023-06-24T08:15:00;25.80;99.90
11894;DHT22;6006;49.696;8.662;2023-06-24T08:17:26;26.10;99.90
11894;DHT22;6006;49.696;8.662;2023-06-24T08:19:53;26.70;99.90
11894;DHT22;6006;49.696;8.662;2023-06-24T08:22:22;26.30;99.90
11894;DHT22;6006;49.696;8.662;2023-06-24T08:24:48;26.60;99.90
11894;DHT22;6006;49.696;8.662;2023-06-24T08:27:15;26.70;99.90
11894;DHT22;6006;49.696;8.662;2023-06-24T08:29:42;27.10;99.90
11894;DHT22;6006;49.696;8.662;2023-06-24T08:32:09;27.00;99.90
11894;DHT22;6006;49.696;8.662;2023-06-24T08:34:36;26.40;99.90
11894;DHT22;6006;49.696;8.662;2023-06-24T08:37:03;27.00;99.90
11894;DHT22;6006;49.696;8.662;2023-06-24T08:39:32;26.90;99.90
11894;DHT22;6006;49.696;8.662;2023-06-24T08:41:59;26.80;99.90
11894;DHT22;6006;49.696;8.662;2023-06-24T08:44:26;26.60;99.90
11894;DHT22;6006;49.696;8.662;2023-06-24T08:46:53;27.20;99.90
11894;DHT22;6006;49.696;8.662;2023-06-24T08:49:27;27.90;99.90
11894;DHT22;6006;49.696;8.662;2023-06-24T08:52:00;26.80;99.90
11894;DHT22;6006;49.696;8.662;2023-06-24T08:54:28;27.70;99.90
11894;DHT22;6006;49.696;8.662;2023-06-24T08:56:57;28.70;99.90
11894;DHT22;6006;49.696;8.662;2023-06-24T08:59:26;28.00;99.90
11894;DHT22;6006;49.696;8.662;2023-06-24T09:01:52;27.50;99.90
11894;DHT22;6006;49.696;8.662;2023-06-24T09:04:19;28.40;99.90
11894;DHT22;6006;49.696;8.662;2023-06-24T09:06:46;29.70;99.90
11894;DHT22;6006;49.696;8.662;2023-06-24T09:09:19;30.20;99.90
11894;DHT22;6006;49.696;8.662;2023-06-24T09:11:54;30.30;99.90
11894;DHT22;6006;49.696;8.662;2023-06-24T09:14:23;30.70;99.90
11894;DHT22;6006;49.696;8.662;2023-06-24T09:16:54;31.30;99.90
11894;DHT22;6006;49.696;8.662;2023-06-24T09:19:22;31.80;99.90
11894;DHT22;6006;49.696;8.662;2023-06-24T09:21:49;32.30;99.90
11894;DHT22;6006;49.696;8.662;2023-06-24T09:24:17;32.10;99.90
11894;DHT22;6006;49.696;8.662;2023-06-24T09:26:44;32.60;99.90
11894;DHT22;6006;49.696;8.662;2023-06-24T09:29:12;32.60;99.90
11894;DHT22;6006;49.696;8.662;2023-06-24T09:31:47;31.90;99.90
11894;DHT22;6006;49.696;8.662;2023-06-24T09:34:15;30.70;99.90
11894;DHT22;6006;49.696;8.662;2023-06-24T09:36:43;30.90;99.90
11894;DHT22;6006;49.696;8.662;2023-06-24T09:39:10;31.50;99.90
11894;DHT22;6006;49.696;8.662;2023-06-24T09:41:40;31.90;99.90
11894;DHT22;6006;49.696;8.662;2023-06-24T09:44:08;32.60;99.90
11894;DHT22;6006;49.696;8.662;2023-06-24T09:46:37;32.90;99.90
11894;DHT22;6006;49.696;8.662;2023-06-24T09:49:05;32.80;99.90
11894;DHT22;6006;49.696;8.662;2023-06-24T09:51:35;32.90;99.90
11894;DHT22;6006;49.696;8.662;2023-06-24T09:54:06;32.50;99.90
11894;DHT22;6006;49.696;8.662;2023-06-24T09:56:34;32.60;99.90
11894;DHT22;6006;49.696;8.662;2023-06-24T09:59:03;29.90;99.90
11894;DHT22;6006;49.696;8.662;2023-06-24T10:01:31;30.60;99.90
11894;DHT22;6006;49.696;8.662;2023-06-24T10:03:59;31.00;99.90
11894;DHT22;6006;49.696;8.662;2023-06-24T10:06:28;31.80;99.90
11894;DHT22;6006;49.696;8.662;2023-06-24T10:08:56;30.30;99.90
11894;DHT22;6006;49.696;8.662;2023-06-24T10:11:24;29.60;99.90
11894;DHT22;6006;49.696;8.662;2023-06-24T10:13:51;29.40;99.90
11894;DHT22;6006;49.696;8.662;2023-06-24T10:16:18;29.30;99.90
11894;DHT22;6006;49.696;8.662;2023-06-24T10:18:46;29.10;99.90
11894;DHT22;6006;49.696;8.662;2023-06-24T10:21:15;28.90;99.90
11894;DHT22;6006;49.696;8.662;2023-06-24T10:23:52;28.60;99.90
11894;DHT22;6006;49.696;8.662;2023-06-24T10:26:24;28.60;99.90
11894;DHT22;6006;49.696;8.662;2023-06-24T10:29:10;28.40;99.90
11894;DHT22;6006;49.696;8.662;2023-06-24T10:31:53;28.00;99.90
11894;DHT22;6006;49.696;8.662;2023-06-24T10:34:24;27.80;99.90
11894;DHT22;6006;49.696;8.662;2023-06-24T10:36:54;27.30;99.90
11894;DHT22;6006;49.696;8.662;2023-06-24T10:39:46;27.10;99.90
11894;DHT22;6006;49.696;8.662;2023-06-24T10:42:38;26.70;99.90
11894;DHT22;6006;49.696;8.662;2023-06-24T10:45:18;26.00;99.90
11894;DHT22;6006;49.696;8.662;2023-06-24T10:47:46;26.10;99.90
11894;DHT22;6006;49.696;8.662;2023-06-24T10:50:15;26.40;99.90
11894;DHT22;6006;49.696;8.662;2023-06-24T10:52:43;27.50;99.90
11894;DHT22;6006;49.696;8.662;2023-06-24T10:55:13;28.00;99.90
11894;DHT22;6006;49.696;8.662;2023-06-24T10:57:41;28.30;99.90
11894;DHT22;6006;49.696;8.662;2023-06-24T11:00:09;29.60;99.90
11894;DHT22;6006;49.696;8.662;2023-06-24T11:02:36;30.50;99.90
11894;DHT22;6006;49.696;8.662;2023-06-24T11:05:04;31.30;99.90
11894;DHT22;6006;49.696;8.662;2023-06-24T11:07:33;30.90;99.90
11894;DHT22;6006;49.696;8.662;2023-06-24T11:10:05;31.30;99.90
11894;DHT22;6006;49.696;8.662;2023-06-24T11:12:35;31.30;99.90
11894;DHT22;6006;49.696;8.662;2023-06-24T11:15:04;31.00;99.90
11894;DHT22;6006;49.696;8.662;2023-06-24T11:17:31;30.70;99.90
11894;DHT22;6006;49.696;8.662;2023-06-24T11:19:59;30.80;99.90
11894;DHT22;6006;49.696;8.662;2023-06-24T11:22:27;31.40;99.90
11894;DHT22;6006;49.696;8.662;2023-06-24T11:24:54;32.30;99.90
11894;DHT22;6006;49.696;8.662;2023-06-24T11:27:25;33.20;99.90
11894;DHT22;6006;49.696;8.662;2023-06-24T11:29:55;33.80;99.90
11894;DHT22;6006;49.696;8.662;2023-06-24T11:32:24;34.20;99.90
11894;DHT22;6006;49.696;8.662;2023-06-24T11:34:51;34.00;99.90
11894;DHT22;6006;49.696;8.662;2023-06-24T11:37:18;34.50;99.90
11894;DHT22;6006;49.696;8.662;2023-06-24T11:40:00;33.70;99.90
11894;DHT22;6006;49.696;8.662;2023-06-24T11:42:28;33.90;99.90
11894;DHT22;6006;49.696;8.662;2023-06-24T11:45:01;34.40;99.90
11894;DHT22;6006;49.696;8.662;2023-06-24T11:47:31;33.00;99.90
11894;DHT22;6006;49.696;8.662;2023-06-24T11:49:59;31.70;99.90
11894;DHT22;6006;49.696;8.662;2023-06-24T11:52:33;31.50;99.90
11894;DHT22;6006;49.696;8.662;2023-06-24T11:55:10;32.00;99.90
11894;DHT22;6006;49.696;8.662;2023-06-24T11:57:49;32.50;99.90
11894;DHT22;6006;49.696;8.662;2023-06-24T12:00:19;33.30;99.90
11894;DHT22;6006;49.696;8.662;2023-06-24T12:02:52;33.40;99.90
11894;DHT22;6006;49.696;8.662;2023-06-24T12:05:24;34.00;99.90
11894;DHT22;6006;49.696;8.662;2023-06-24T12:07:58;32.40;99.90
11894;DHT22;6006;49.696;8.662;2023-06-24T12:10:25;31.80;99.90
11894;DHT22;6006;49.696;8.662;2023-06-24T12:12:52;32.40;99.90
11894;DHT22;6006;49.696;8.662;2023-06-24T12:15:21;33.70;99.90
11894;DHT22;6006;49.696;8.662;2023-06-24T12:17:48;33.00;99.90
11894;DHT22;6006;49.696;8.662;2023-06-24T12:20:15;34.40;99.90
11894;DHT22;6006;49.696;8.662;2023-06-24T12:22:44;34.80;99.90
11894;DHT22;6006;49.696;8.662;2023-06-24T12:25:11;34.60;99.90
11894;DHT22;6006;49.696;8.662;2023-06-24T12:27:38;34.30;99.90
11894;DHT22;6006;49.696;8.662;2023-06-24T12:30:07;32.70;99.90
11894;DHT22;6006;49.696;8.662;2023-06-24T12:32:36;33.00;99.90
11894;DHT22;6006;49.696;8.662;2023-06-24T12:35:03;33.00;99.90
11894;DHT22;6006;49.696;8.662;2023-06-24T12:37:31;32.20;99.90
11894;DHT22;6006;49.696;8.662;2023-06-24T12:39:58;33.20;99.90
11894;DHT22;6006;49.696;8.662;2023-06-24T12:42:26;32.80;99.90
11894;DHT22;6006;49.696;8.662;2023-06-24T12:44:53;32.90;99.90
11894;DHT22;6006;49.696;8.662;2023-06-24T12:47:20;32.20;99.90
11894;DHT22;6006;49.696;8.662;2023-06-24T12:49:49;33.20;99.90
11894;DHT22;6006;49.696;8.662;2023-06-24T12:52:16;34.80;99.90
11894;DHT22;6006;49.696;8.662;2023-06-24T12:54:43;35.80;99.90
11894;DHT22;6006;49.696;8.662;2023-06-24T12:57:10;35.10;99.90
11894;DHT22;6006;49.696;8.662;2023-06-24T12:59:37;35.10;99.90
11894;DHT22;6006;49.696;8.662;2023-06-24T13:02:04;33.90;98.70
11894;DHT22;6006;49.696;8.662;2023-06-24T13:04:31;32.30;99.60
11894;DHT22;6006;49.696;8.662;2023-06-24T13:06:59;31.20;99.90
11894;DHT22;6006;49.696;8.662;2023-06-24T13:09:26;30.70;99.90
11894;DHT22;6006;49.696;8.662;2023-06-24T13:11:53;30.30;99.90
11894;DHT22;6006;49.696;8.662;2023-06-24T13:14:20;30.00;99.90
11894;DHT22;6006;49.696;8.662;2023-06-24T13:16:47;28.70;99.90
11894;DHT22;6006;49.696;8.662;2023-06-24T13:19:14;28.80;99.90
11894;DHT22;6006;49.696;8.662;2023-06-24T13:21:43;28.50;99.90
11894;DHT22;6006;49.696;8.662;2023-06-24T13:24:11;28.40;99.90
11894;DHT22;6006;49.696;8.662;2023-06-24T13:26:38;28.30;99.90
11894;DHT22;6006;49.696;8.662;2023-06-24T13:29:05;28.20;99.90
11894;DHT22;6006;49.696;8.662;2023-06-24T13:31:33;28.30;99.90
11894;DHT22;6006;49.696;8.662;2023-06-24T13:33:59;28.30;99.90
11894;DHT22;6006;49.696;8.662;2023-06-24T13:36:31;28.40;99.90
11894;DHT22;6006;49.696;8.662;2023-06-24T13:39:01;28.40;99.90
11894;DHT22;6006;49.696;8.662;2023-06-24T13:41:29;27.70;99.90
11894;DHT22;6006;49.696;8.662;2023-06-24T13:43:58;28.60;99.90
11894;DHT22;6006;49.696;8.662;2023-06-24T13:46:25;29.90;99.90
11894;DHT22;6006;49.696;8.662;2023-06-24T13:48:52;31.00;99.90
11894;DHT22;6006;49.696;8.662;2023-06-24T13:51:19;32.50;99.90
11894;DHT22;6006;49.696;8.662;2023-06-24T13:53:48;32.70;99.90
11894;DHT22;6006;49.696;8.662;2023-06-24T13:56:15;33.10;99.90
11894;DHT22;6006;49.696;8.662;2023-06-24T13:58:44;33.50;99.90
11894;DHT22;6006;49.696;8.662;2023-06-24T14:01:11;34.00;99.90
11894;DHT22;6006;49.696;8.662;2023-06-24T14:03:38;34.40;99.90
11894;DHT22;6006;49.696;8.662;2023-06-24T14:06:05;34.30;99.90
11894;DHT22;6006;49.696;8.662;2023-06-24T14:08:33;33.60;99.90
11894;DHT22;6006;49.696;8.662;2023-06-24T14:11:00;33.40;99.90
11894;DHT22;6006;49.696;8.662;2023-06-24T14:13:28;33.40;99.90
11894;DHT22;6006;49.696;8.662;2023-06-24T14:15:58;33.30;99.90
11894;DHT22;6006;49.696;8.662;2023-06-24T14:18:25;33.20;99.90
11894;DHT22;6006;49.696;8.662;2023-06-24T14:20:52;33.00;99.90
11894;DHT22;6006;49.696;8.662;2023-06-24T14:23:19;32.40;99.90
11894;DHT22;6006;49.696;8.662;2023-06-24T14:25:46;31.60;99.90
11894;DHT22;6006;49.696;8.662;2023-06-24T14:28:13;30.80;99.90
11894;DHT22;6006;49.696;8.662;2023-06-24T14:30:40;30.50;99.90
11894;DHT22;6006;49.696;8.662;2023-06-24T14:33:09;30.30;99.90
11894;DHT22;6006;49.696;8.662;2023-06-24T14:35:36;30.70;99.90
11894;DHT22;6006;49.696;8.662;2023-06-24T14:38:03;31.40;99.90
11894;DHT22;6006;49.696;8.662;2023-06-24T14:40:30;32.30;99.90
11894;DHT22;6006;49.696;8.662;2023-06-24T14:42:57;33.10;99.90
11894;DHT22;6006;49.696;8.662;2023-06-24T14:45:24;33.40;99.90
11894;DHT22;6006;49.696;8.662;2023-06-24T14:47:52;33.20;99.90
11894;DHT22;6006;49.696;8.662;2023-06-24T14:50:20;31.70;99.90
11894;DHT22;6006;49.696;8.662;2023-06-24T14:52:48;31.50;99.90
11894;DHT22;6006;49.696;8.662;2023-06-24T14:55:15;32.10;99.90
11894;DHT22;6006;49.696;8.662;2023-06-24T14:57:42;32.90;99.90
11894;DHT22;6006;49.696;8.662;2023-06-24T15:00:10;32.90;99.90
11894;DHT22;6006;49.696;8.662;2023-06-24T15:02:37;33.40;99.90
11894;DHT22;6006;49.696;8.662;2023-06-24T15:05:04;33.60;99.90
11894;DHT22;6006;49.696;8.662;2023-06-24T15:07:32;33.00;99.90
11894;DHT22;6006;49.696;8.662;2023-06-24T15:09:59;33.70;99.90
11894;DHT22;6006;49.696;8.662;2023-06-24T15:12:26;33.30;99.90
11894;DHT22;6006;49.696;8.662;2023-06-24T15:14:53;33.60;99.90
11894;DHT22;6006;49.696;8.662;2023-06-24T15:17:20;34.10;99.90
11894;DHT22;6006;49.696;8.662;2023-06-24T15:19:47;34.20;99.90
11894;DHT22;6006;49.696;8.662;2023-06-24T15:22:13;33.60;99.90
11894;DHT22;6006;49.696;8.662;2023-06-24T15:24:42;33.10;99.90
11894;DHT22;6006;49.696;8.662;2023-06-24T15:27:10;32.80;99.90
11894;DHT22;6006;49.696;8.662;2023-06-24T15:29:37;32.30;99.90
11894;DHT22;6006;49.696;8.662;2023-06-24T15:32:04;32.70;99.90
11894;DHT22;6006;49.696;8.662;2023-06-24T15:34:31;32.80;99.90
11894;DHT22;6006;49.696;8.662;2023-06-24T15:36:58;32.30;99.90
11894;DHT22;6006;49.696;8.662;2023-06-24T15:39:25;31.60;99.90
11894;DHT22;6006;49.696;8.662;2023-06-24T15:41:53;30.20;99.90
11894;DHT22;6006;49.696;8.662;2023-06-24T15:44:20;30.30;99.90
11894;DHT22;6006;49.696;8.662;2023-06-24T15:46:47;29.50;99.90
11894;DHT22;6006;49.696;8.662;2023-06-24T15:49:14;29.50;99.90
11894;DHT22;6006;49.696;8.662;2023-06-24T15:51:41;29.90;99.90
11894;DHT22;6006;49.696;8.662;2023-06-24T15:54:08;29.60;99.90